GW2926 Weather Reports


Display with metric or nautical units.
time (UTC)temp
F
wind
direction
speed
MPH
gust
MPH
rain 1hr
in
rain 24hr
in
rain mn
in
humidity
%
barometer
mb
20260510104546 59 0 0.0 0.0 0.00 0.00 0.00 95 1014.7
20260510103038 58 0 0.0 1.0 0.00 0.00 0.00 95 1015.0
20260510101537 58 0 0.0 1.0 0.00 0.00 0.00 95 1014.8
20260510100036 58 0 0.0 0.0 0.00 0.00 0.00 95 1014.5
20260510094541 58 0 0.0 0.0 0.00 0.00 0.00 94 1014.6
20260510093037 58 0 0.0 1.0 0.00 0.00 0.00 93 1014.2
20260510091537 59 169 0.0 2.0 0.00 0.00 0.00 94 1014.1
20260510090040 58 169 0.0 1.0 0.00 0.00 0.00 94 1013.9
20260510084535 58 0 0.0 1.0 0.00 0.00 0.00 95 1013.8
20260510083039 57 0 0.0 0.0 0.00 0.00 0.00 95 1013.5
20260510081542 57 0 0.0 1.0 0.00 0.00 0.00 95 1013.4
20260510080039 58 0 0.0 0.0 0.00 0.00 0.00 94 1013.3
20260510074537 57 0 0.0 1.0 0.00 0.00 0.00 94 1013.2
20260510073037 58 0 0.0 0.0 0.00 0.00 0.00 94 1013.3
20260510071536 58 169 0.0 2.0 0.00 0.00 0.00 94 1013.4
20260510070040 58 0 0.0 0.0 0.00 0.00 0.00 93 1013.2
20260510064539 58 0 0.0 0.0 0.00 0.00 0.00 93 1013.1
20260510063039 58 0 0.0 0.0 0.00 0.00 0.00 93 1013.2
20260510061538 59 0 0.0 2.0 0.00 0.00 0.00 93 1013.6
20260510060047 59 0 0.0 1.0 0.00 0.00 0.00 92 1013.4
20260510054537 59 0 0.0 0.0 0.00 0.00 0.00 91 1013.3
20260510053041 59 0 0.0 0.0 0.00 0.00 0.00 91 1013.2
20260510051545 60 0 0.0 0.0 0.00 0.00 0.00 90 1013.1
20260510050037 60 0 0.0 1.0 0.00 0.00 0.00 90 1012.9
20260510044538 60 0 0.0 0.0 0.00 0.00 0.00 90 1012.9
20260510043049 60 0 0.0 1.0 0.00 0.00 0.00 90 1012.9
20260510041537 60 0 0.0 0.0 0.00 0.00 0.00 88 1012.7
20260510040039 61 0 0.0 1.0 0.00 0.00 0.00 88 1012.8
20260510034543 61 0 0.0 2.0 0.00 0.00 0.00 87 1012.8
20260510033040 62 0 0.0 2.0 0.00 0.00 0.00 87 1012.7
20260510031605 63 0 0.0 4.0 0.00 0.00 0.00 85 1012.4
20260510030038 64 0 0.0 1.0 0.00 0.00 0.00 84 1012.3
20260510024538 64 0 0.0 0.0 0.00 0.00 0.00 82 1012.3
20260510023047 65 0 0.0 1.0 0.00 0.00 0.00 81 1012.1
20260510021542 66 0 0.0 1.0 0.00 0.00 0.00 78 1011.9
20260510020037 68 0 0.0 0.0 0.00 0.00 0.00 74 1011.8
20260510014538 69 0 0.0 0.0 0.00 0.00 0.00 68 1011.7
20260510013038 71 0 0.0 0.0 0.00 0.00 0.00 63 1011.6
20260510011553 73 0 0.0 1.0 0.00 0.00 0.00 58 1011.4
20260510010044 75 0 0.0 0.0 0.00 0.00 0.00 54 1011.2
20260510004538 77 0 0.0 1.0 0.00 0.00 0.00 51 1011.1
20260510003038 79 0 0.0 1.0 0.00 0.00 0.00 46 1010.9
20260510001537 82 0 0.0 2.0 0.00 0.00 0.00 43 1010.9
20260510000256 83 0 0.0 2.0 0.00 0.00 0.00 42 1010.8
20260509234540 83 0 1.0 6.0 0.00 0.00 0.00 41 1010.7
20260509233037 83 144 2.0 5.0 0.00 0.00 0.00 37 1010.6
20260509231539 83 192 2.0 5.0 0.00 0.00 0.00 35 1010.5
20260509230037 83 162 2.0 8.0 0.00 0.00 0.00 39 1010.4
20260509224537 84 114 3.0 8.0 0.00 0.00 0.00 39 1010.3
20260509223037 84 240 3.0 10.0 0.00 0.00 0.00 42 1010.1
20260509221539 85 159 2.0 7.0 0.00 0.00 0.00 47 1010.0
20260509220044 85 139 2.0 7.0 0.00 0.00 0.00 44 1010.0
20260509214541 85 98 1.0 8.0 0.00 0.00 0.00 43 1010.0
20260509213049 86 162 2.0 8.0 0.00 0.00 0.00 43 1010.0
20260509211605 85 82 3.0 7.0 0.00 0.00 0.00 42 1010.1
20260509210037 85 68 2.0 9.0 0.00 0.00 0.00 43 1010.2
20260509204544 85 152 3.0 8.0 0.00 0.00 0.00 39 1010.4
20260509203042 85 72 2.0 12.0 0.00 0.00 0.00 43 1010.6
20260509201537 85 151 3.0 10.0 0.00 0.00 0.00 39 1010.9
20260509200039 85 85 3.0 9.0 0.00 0.00 0.00 45 1010.9
20260509194539 85 0 2.0 12.0 0.00 0.00 0.00 49 1010.9
20260509193036 84 109 3.0 9.0 0.00 0.00 0.00 46 1011.0
20260509191537 83 92 2.0 7.0 0.00 0.00 0.00 50 1011.0
20260509190045 83 134 2.0 7.0 0.00 0.00 0.00 49 1011.1
20260509184546 83 15 1.0 7.0 0.00 0.00 0.00 53 1011.1
20260509183041 83 103 2.0 4.0 0.00 0.00 0.00 50 1011.1
20260509181545 81 173 2.0 9.0 0.00 0.00 0.00 55 1011.3
20260509180041 81 150 1.0 5.0 0.00 0.00 0.00 52 1011.4
20260509174540 82 0 0.0 5.0 0.00 0.00 0.00 53 1011.4
20260509173037 81 59 1.0 6.0 0.00 0.00 0.00 58 1011.5
20260509171538 80 107 1.0 7.0 0.00 0.00 0.00 59 1011.7
20260509170037 80 103 2.0 7.0 0.00 0.00 0.00 60 1011.8
20260509164536 80 155 3.0 8.0 0.00 0.00 0.00 63 1011.7
20260509163050 78 44 1.0 7.0 0.00 0.00 0.00 65 1011.6
20260509161540 77 284 1.0 6.0 0.00 0.00 0.00 68 1011.5
20260509160039 77 0 1.0 5.0 0.00 0.00 0.00 67 1011.6
20260509154537 76 19 2.0 6.0 0.00 0.00 0.00 67 1011.6
20260509153036 75 59 2.0 7.0 0.00 0.00 0.00 72 1011.4
20260509151536 74 0 1.0 4.0 0.00 0.00 0.00 71 1011.4
20260509150039 72 292 0.0 5.0 0.00 0.00 0.00 74 1011.5
20260509144537 71 240 1.0 3.0 0.00 0.00 0.00 74 1011.6
20260509143037 69 267 0.0 4.0 0.00 0.00 0.00 77 1011.8
20260509141537 69 295 2.0 6.0 0.00 0.00 0.00 80 1011.8
20260509140039 67 265 0.0 4.0 0.00 0.00 0.00 82 1011.8
20260509134550 66 257 1.0 5.0 0.00 0.00 0.00 83 1011.7
20260509133042 65 263 2.0 4.0 0.00 0.00 0.00 84 1011.8
20260509131537 64 290 2.0 6.0 0.00 0.00 0.00 85 1011.8
20260509130037 63 264 0.0 2.0 0.00 0.00 0.00 86 1011.6
20260509124538 61 0 0.0 0.0 0.00 0.00 0.00 89 1011.4
20260509123037 60 0 0.0 0.0 0.00 0.00 0.00 91 1011.3
20260509121540 58 0 0.0 0.0 0.00 0.00 0.00 94 1011.0
20260509120038 57 0 0.0 0.0 0.00 0.00 0.00 94 1010.9
20260509114543 56 0 0.0 0.0 0.00 0.00 0.00 95 1010.6
20260509113036 56 0 0.0 0.0 0.00 0.00 0.00 94 1010.4
20260509111536 56 0 0.0 0.0 0.00 0.00 0.00 93 1010.2
20260509110039 56 0 0.0 0.0 0.00 0.00 0.00 93 1010.2